x

Isle Of Shoals, Nh (iosn3) Weather Station

8:00 - Tue 21st Apr 2015 All times are EDT. -4 hours from GMT.

  • Wind
    15mph
  • Luft Temp 59°f
  • Sea Pressure 1004.1mb
  • Isle Of Shoals, Nh
  • Isle Of Shoals, Nh

More Historic Weather Station data

Upgrade to MSW Pro to gain access to the past 30 days of data for over 8000 Wavebouys and Weather Stations around the globe.

Join Pro

Comparision Forecast

View Surf forecast
   
Di 04/21 8:00 15
mph
1004.1mb 59f
7:00 15 16 mph 1002.9mb 59f
6:00 17 18 mph 1001.8mb 60f
5:00 14 15 mph 1001.2mb 59f
4:00 16 17 mph 1000.4mb 57f
3:00 6 7 mph 1000.4mb 57f
2:00 15
mph
1000.4mb 57f
1:00 6
mph
1000.4mb 49f
12:00 7 8 mph 1000mb 51f
11:00 8
mph
999.5mb 46f
10:00  -  1 mph 999.8mb 45f
9:00 16 17 mph 999.5mb 46f
8:00 22 23 mph 999.8mb 46f
7:00 25 28 mph 999.9mb 46f
6:00 14 17 mph 999.6mb 46f
5:00 21 23 mph 1001.7mb 46f
4:00 29 31 mph 1002.2mb 46f
3:00 31 36 mph 1002.7mb 46f
2:00 39 44 mph 1003.1mb 46f
1:00 37 41 mph 1004.7mb 46f
12:00 36 41 mph 1006.1mb 46f
Mo 04/20 11:00 33 38 mph 1007.7mb 46f
10:00 13 16 mph 1010.6mb 45f
9:00 33 37 mph 1009.4mb 44f
8:00 37 40 mph 1010.4mb 44f
7:00 32 34 mph 1011.7mb 43f
6:00 37 43 mph 1012mb 43f
5:00 33 37 mph 1013.2mb 44f
4:00 32 36 mph 1013.9mb 43f
3:00 33 37 mph 1014.6mb 42f
2:00 29 32 mph 1016.9mb 42f
1:00 28 30 mph 1018.2mb 42f
12:00 29 31 mph 1019.4mb 41f
11:00 25 28 mph 1020.6mb 41f
10:00 20 21 mph 1021.9mb 41f
9:00 16 18 mph 1022.1mb 41f
8:00 11 14 mph 1023.3mb 41f
7:00 14 16 mph 1023.4mb 41f
6:00 16 17 mph 1022.6mb 41f
5:00 14 15 mph 1022.3mb 41f
4:00 8 9 mph 1022.8mb 42f
3:00 10 11 mph 1022.8mb 42f
2:00 10 11 mph 1023mb 43f
1:00 11 13 mph 1023.8mb 43f
12:00 11 13 mph 1023.8mb 42f
So 04/19 11:00 13 14 mph 1024.3mb 42f
10:00 15
mph
1024.4mb 42f
9:00 15 16 mph 1024.5mb 42f
8:00 14 15 mph 1023.8mb 42f
7:00 15 16 mph 1023.5mb 42f
6:00 11 13 mph 1022.9mb 42f
5:00 14 15 mph 1022.8mb 42f
4:00 17 18 mph 1022.8mb 42f
3:00 14 15 mph 1023.7mb 42f
2:00 11 14 mph 1024.7mb 42f
1:00 10 11 mph 1024.6mb 42f
12:00 13
mph
1024.4mb 42f
11:00 9 10 mph 1024.5mb 43f
10:00 9 11 mph 1024.4mb 42f
9:00 7 8 mph 1024mb 42f
8:00 6 7 mph 1023.8mb 41f
7:00 8 9 mph 1023.1mb 41f
6:00 9 10 mph 1021.9mb 41f
5:00 11
mph
1021mb 42f
4:00 7
mph
1020.4mb 42f
3:00 16 17 mph 1019.2mb 44f
2:00 16 17 mph 1018.4mb 44f
1:00 18 20 mph 1017.8mb 46f
12:00 3
mph
1017.8mb 42f
Sa 04/18 11:00 11
mph
1017.3mb 42f
10:00 9 10 mph 1016.8mb 42f
9:00 14 16 mph 1015.5mb 42f
8:00 14 16 mph 1014mb 42f
7:00 14 15 mph 1013.1mb 42f
6:00 14 15 mph 1013mb 42f
5:00 7 8 mph 1009.7mb 42f
4:00 7 8 mph 1010.5mb 42f
3:00 6
mph
1011.8mb 42f
2:00 14 16 mph 1011.7mb 42f
1:00 15
mph
1013.2mb 43f
12:00 9 10 mph 1014mb 43f
11:00 15 17 mph 1014.6mb 45f
10:00 9 10 mph 1014.6mb 48f
9:00 9
mph
1013.4mb 49f
8:00 8 9 mph 1013.4mb 50f
7:00 9 10 mph 1013.3mb 49f
6:00 10 11 mph 1012mb 51f
5:00 11
mph
1011.6mb 51f
4:00 16 17 mph 1011.4mb 53f
3:00 10 13 mph 1011.4mb 48f
2:00 17 18 mph 1011.4mb 54f